San Juan, PR (00929)

6:24 PM AST on September 03, 2015 (GMT -0400)
Cupey Carr 199/844 | | Change Station
CLOSE
Current Station
Personal Weather Station
Location: San Juan, SAN JUAN
Elevation: 348 ft
Nearby Weather Stations

Elev 348 ft 18.36 °N, 66.04 °W | Updated 8 minutes ago

Scattered Clouds
Scattered Clouds
77.5 °F
Feels Like 79 °F
N
3.2
Wind Variable Wind from NNE

Today
High -- | Low -- °F
--% Chance of Precip.
Yesterday
High -- | Low -- °F
Precip. -- in
6:09 AM 6:36 PM
Waning Gibbous, 66% visible
Pressure 29.94 in
Visibility 10.0 miles
Clouds Few 3800 ft
Scattered Clouds 10000 ft
Heat Index 79 °F
Dew Point 74 °F
Humidity 89%
Rainfall 0.42 in
Snow Depth Not available.
UV 0 out of 12
Pollen Not available.
Air Quality Not available.
Flu Activity Not available.
METAR TJSJ 032156Z 24006KT 10SM FEW038 SCT100 29/22 A2995 RMK AO2 SLP139 T02940222
Pressure 29.94 in
Visibility 10.0 miles
Clouds Few 3800 ft
Scattered Clouds 10000 ft
Heat Index 79 °F
Dew Point 74 °F
Humidity 89%
Rainfall 0.42 in
Snow Depth Not available.
UV 0 out of 12
Pollen Not available.
Air Quality Not available.
Flu Activity Not available.
METAR TJSJ 032156Z 24006KT 10SM FEW038 SCT100 29/22 A2995 RMK AO2 SLP139 T02940222

10-Day Weather Forecast

×

Almanac

Astronomy

Sep. 03, 2015 Rise Set
Actual Time
Civil Twilight
Nautical Twilight
Astronomical Twilight
Moon
Length of Visible Light
Length of Day
Tomorrow will be .
, % of the Moon is Illuminated

Today's Extremes

State Highs State Lows

Community

WunderPhotos

Upload Photos

1,852,048 photos uploaded!

WunderBlogs® & News

Nearby

Air Quality

  Air Quality AQ Index Pollutant
Not available.

Snow Depth

Station Depth Elevation

Earthquake Activity

City Distance Mag. Time & Date
Minimum magnitude displayed is 2.5.

Coastal Water Temperatures

Place Temperature

Stations

Nearby Weather Stations

Station Location Temp. Windchill Dew Point Humidity Wind Precip. Elev Updated Type